sensor_id;sensor_type;location;lat;lon;timestamp;temperature;humidity
12885;DHT22;6510;51.362;7.370;2023-08-20T00:00:26;19.00;99.90
12885;DHT22;6510;51.362;7.370;2023-08-20T00:02:59;19.00;99.90
12885;DHT22;6510;51.362;7.370;2023-08-20T00:05:26;19.00;99.90
12885;DHT22;6510;51.362;7.370;2023-08-20T00:07:51;19.00;99.90
12885;DHT22;6510;51.362;7.370;2023-08-20T00:10:17;19.10;99.90
12885;DHT22;6510;51.362;7.370;2023-08-20T00:12:43;19.10;99.90
12885;DHT22;6510;51.362;7.370;2023-08-20T00:15:09;19.20;99.90
12885;DHT22;6510;51.362;7.370;2023-08-20T00:17:36;19.30;99.90
12885;DHT22;6510;51.362;7.370;2023-08-20T00:20:03;19.30;99.90
12885;DHT22;6510;51.362;7.370;2023-08-20T00:22:38;19.40;99.90
12885;DHT22;6510;51.362;7.370;2023-08-20T00:25:05;19.40;99.90
12885;DHT22;6510;51.362;7.370;2023-08-20T00:27:31;19.40;99.90
12885;DHT22;6510;51.362;7.370;2023-08-20T00:29:56;19.40;99.90
12885;DHT22;6510;51.362;7.370;2023-08-20T00:32:22;19.40;99.90
12885;DHT22;6510;51.362;7.370;2023-08-20T00:34:48;19.30;99.90
12885;DHT22;6510;51.362;7.370;2023-08-20T00:37:14;19.20;99.90
12885;DHT22;6510;51.362;7.370;2023-08-20T00:39:40;19.10;99.90
12885;DHT22;6510;51.362;7.370;2023-08-20T00:42:06;19.10;99.90
12885;DHT22;6510;51.362;7.370;2023-08-20T00:44:33;19.10;99.90
12885;DHT22;6510;51.362;7.370;2023-08-20T00:47:03;19.00;99.90
12885;DHT22;6510;51.362;7.370;2023-08-20T00:49:30;19.00;99.90
12885;DHT22;6510;51.362;7.370;2023-08-20T00:51:58;19.00;99.90
12885;DHT22;6510;51.362;7.370;2023-08-20T00:54:24;19.00;99.90
12885;DHT22;6510;51.362;7.370;2023-08-20T00:56:51;19.00;99.90
12885;DHT22;6510;51.362;7.370;2023-08-20T00:59:17;19.00;99.90
12885;DHT22;6510;51.362;7.370;2023-08-20T01:01:43;19.00;99.90
12885;DHT22;6510;51.362;7.370;2023-08-20T01:04:09;19.00;99.90
12885;DHT22;6510;51.362;7.370;2023-08-20T01:12:02;18.90;99.90
12885;DHT22;6510;51.362;7.370;2023-08-20T01:14:28;18.90;99.90
12885;DHT22;6510;51.362;7.370;2023-08-20T01:16:54;18.80;99.90
12885;DHT22;6510;51.362;7.370;2023-08-20T01:19:21;18.80;99.90
12885;DHT22;6510;51.362;7.370;2023-08-20T01:30:20;18.70;99.90
12885;DHT22;6510;51.362;7.370;2023-08-20T01:32:49;18.70;99.90
12885;DHT22;6510;51.362;7.370;2023-08-20T01:35:17;18.70;99.90
12885;DHT22;6510;51.362;7.370;2023-08-20T01:37:43;18.70;99.90
12885;DHT22;6510;51.362;7.370;2023-08-20T01:40:08;18.60;99.90
12885;DHT22;6510;51.362;7.370;2023-08-20T01:42:39;18.70;99.90
12885;DHT22;6510;51.362;7.370;2023-08-20T01:45:05;18.70;99.90
12885;DHT22;6510;51.362;7.370;2023-08-20T01:47:32;18.70;99.90
12885;DHT22;6510;51.362;7.370;2023-08-20T01:49:58;18.60;99.90
12885;DHT22;6510;51.362;7.370;2023-08-20T01:52:24;18.60;99.90
12885;DHT22;6510;51.362;7.370;2023-08-20T01:54:50;18.60;99.90
12885;DHT22;6510;51.362;7.370;2023-08-20T01:57:15;18.60;99.90
12885;DHT22;6510;51.362;7.370;2023-08-20T01:59:41;18.60;99.90
12885;DHT22;6510;51.362;7.370;2023-08-20T02:02:06;18.60;99.90
12885;DHT22;6510;51.362;7.370;2023-08-20T02:04:32;18.60;99.90
12885;DHT22;6510;51.362;7.370;2023-08-20T02:06:58;18.60;99.90
12885;DHT22;6510;51.362;7.370;2023-08-20T02:09:24;18.60;99.90
12885;DHT22;6510;51.362;7.370;2023-08-20T02:11:50;18.60;99.90
12885;DHT22;6510;51.362;7.370;2023-08-20T02:14:16;18.60;99.90
12885;DHT22;6510;51.362;7.370;2023-08-20T02:16:42;18.60;99.90
12885;DHT22;6510;51.362;7.370;2023-08-20T02:19:07;18.60;99.90
12885;DHT22;6510;51.362;7.370;2023-08-20T02:21:33;18.50;99.90
12885;DHT22;6510;51.362;7.370;2023-08-20T02:23:59;18.50;99.90
12885;DHT22;6510;51.362;7.370;2023-08-20T02:26:25;18.50;99.90
12885;DHT22;6510;51.362;7.370;2023-08-20T02:28:50;18.50;99.90
12885;DHT22;6510;51.362;7.370;2023-08-20T02:31:16;18.50;99.90
12885;DHT22;6510;51.362;7.370;2023-08-20T02:33:41;18.50;99.90
12885;DHT22;6510;51.362;7.370;2023-08-20T02:36:07;18.40;99.90
12885;DHT22;6510;51.362;7.370;2023-08-20T02:38:32;18.50;99.90
12885;DHT22;6510;51.362;7.370;2023-08-20T02:40:58;18.50;99.90
12885;DHT22;6510;51.362;7.370;2023-08-20T02:43:24;18.60;99.90
12885;DHT22;6510;51.362;7.370;2023-08-20T02:45:49;18.70;99.90
12885;DHT22;6510;51.362;7.370;2023-08-20T02:48:15;18.70;99.90
12885;DHT22;6510;51.362;7.370;2023-08-20T02:50:41;18.70;99.90
12885;DHT22;6510;51.362;7.370;2023-08-20T02:53:06;18.80;99.90
12885;DHT22;6510;51.362;7.370;2023-08-20T02:55:33;18.80;99.90
12885;DHT22;6510;51.362;7.370;2023-08-20T02:57:59;18.90;99.90
12885;DHT22;6510;51.362;7.370;2023-08-20T03:00:27;19.00;99.90
12885;DHT22;6510;51.362;7.370;2023-08-20T03:02:53;19.00;99.90
12885;DHT22;6510;51.362;7.370;2023-08-20T03:05:19;19.10;99.90
12885;DHT22;6510;51.362;7.370;2023-08-20T03:07:44;19.10;99.90
12885;DHT22;6510;51.362;7.370;2023-08-20T03:10:10;19.10;99.90
12885;DHT22;6510;51.362;7.370;2023-08-20T03:12:35;19.10;99.90
12885;DHT22;6510;51.362;7.370;2023-08-20T03:15:01;19.10;99.90
12885;DHT22;6510;51.362;7.370;2023-08-20T03:17:28;19.10;99.90
12885;DHT22;6510;51.362;7.370;2023-08-20T03:19:55;19.00;99.90
12885;DHT22;6510;51.362;7.370;2023-08-20T03:22:22;19.00;99.90
12885;DHT22;6510;51.362;7.370;2023-08-20T03:24:48;18.80;99.90
12885;DHT22;6510;51.362;7.370;2023-08-20T03:27:15;18.70;99.90
12885;DHT22;6510;51.362;7.370;2023-08-20T03:29:41;18.60;99.90
12885;DHT22;6510;51.362;7.370;2023-08-20T03:32:06;18.50;99.90
12885;DHT22;6510;51.362;7.370;2023-08-20T03:34:32;18.50;99.90
12885;DHT22;6510;51.362;7.370;2023-08-20T03:36:57;18.40;99.90
12885;DHT22;6510;51.362;7.370;2023-08-20T03:39:23;18.40;99.90
12885;DHT22;6510;51.362;7.370;2023-08-20T03:41:50;18.30;99.90
12885;DHT22;6510;51.362;7.370;2023-08-20T03:44:16;18.20;99.90
12885;DHT22;6510;51.362;7.370;2023-08-20T03:46:41;18.10;99.90
12885;DHT22;6510;51.362;7.370;2023-08-20T03:49:07;18.00;99.90
12885;DHT22;6510;51.362;7.370;2023-08-20T03:51:32;18.00;99.90
12885;DHT22;6510;51.362;7.370;2023-08-20T03:53:58;18.00;99.90
12885;DHT22;6510;51.362;7.370;2023-08-20T03:56:24;18.00;99.90
12885;DHT22;6510;51.362;7.370;2023-08-20T03:58:50;18.00;99.90
12885;DHT22;6510;51.362;7.370;2023-08-20T04:01:15;18.10;99.90
12885;DHT22;6510;51.362;7.370;2023-08-20T04:03:41;18.10;99.90
12885;DHT22;6510;51.362;7.370;2023-08-20T04:06:07;18.10;99.90
12885;DHT22;6510;51.362;7.370;2023-08-20T04:08:32;18.10;99.90
12885;DHT22;6510;51.362;7.370;2023-08-20T04:10:58;18.10;99.90
12885;DHT22;6510;51.362;7.370;2023-08-20T04:13:24;18.00;99.90
12885;DHT22;6510;51.362;7.370;2023-08-20T04:15:50;18.00;99.90
12885;DHT22;6510;51.362;7.370;2023-08-20T04:18:16;18.10;99.90
12885;DHT22;6510;51.362;7.370;2023-08-20T04:20:42;18.20;99.90
12885;DHT22;6510;51.362;7.370;2023-08-20T04:23:07;18.20;99.90
12885;DHT22;6510;51.362;7.370;2023-08-20T04:25:33;18.20;99.90
12885;DHT22;6510;51.362;7.370;2023-08-20T04:27:59;18.20;99.90
12885;DHT22;6510;51.362;7.370;2023-08-20T04:30:24;18.20;99.90
12885;DHT22;6510;51.362;7.370;2023-08-20T04:32:50;18.10;99.90
12885;DHT22;6510;51.362;7.370;2023-08-20T04:35:16;18.10;99.90
12885;DHT22;6510;51.362;7.370;2023-08-20T04:37:41;18.00;99.90
12885;DHT22;6510;51.362;7.370;2023-08-20T04:40:07;18.00;99.90
12885;DHT22;6510;51.362;7.370;2023-08-20T04:42:33;18.00;99.90
12885;DHT22;6510;51.362;7.370;2023-08-20T04:44:59;18.00;99.90
12885;DHT22;6510;51.362;7.370;2023-08-20T04:47:24;18.10;99.90
12885;DHT22;6510;51.362;7.370;2023-08-20T04:49:50;18.20;99.90
12885;DHT22;6510;51.362;7.370;2023-08-20T04:52:16;18.30;99.90
12885;DHT22;6510;51.362;7.370;2023-08-20T04:54:42;18.30;99.90
12885;DHT22;6510;51.362;7.370;2023-08-20T04:57:07;18.40;99.90
12885;DHT22;6510;51.362;7.370;2023-08-20T04:59:33;18.40;99.90
12885;DHT22;6510;51.362;7.370;2023-08-20T05:01:58;18.50;99.90
12885;DHT22;6510;51.362;7.370;2023-08-20T05:04:24;18.50;99.90
12885;DHT22;6510;51.362;7.370;2023-08-20T05:06:49;18.60;99.90
12885;DHT22;6510;51.362;7.370;2023-08-20T05:09:15;18.70;99.90
12885;DHT22;6510;51.362;7.370;2023-08-20T05:11:41;18.70;99.90
12885;DHT22;6510;51.362;7.370;2023-08-20T05:14:07;18.70;99.90
12885;DHT22;6510;51.362;7.370;2023-08-20T05:16:33;18.80;99.90
12885;DHT22;6510;51.362;7.370;2023-08-20T05:18:58;18.90;99.90
12885;DHT22;6510;51.362;7.370;2023-08-20T05:21:24;18.90;99.90
12885;DHT22;6510;51.362;7.370;2023-08-20T05:23:49;18.80;99.90
12885;DHT22;6510;51.362;7.370;2023-08-20T05:26:15;18.80;99.90
12885;DHT22;6510;51.362;7.370;2023-08-20T05:28:41;18.80;99.90
12885;DHT22;6510;51.362;7.370;2023-08-20T05:31:07;18.90;99.90
12885;DHT22;6510;51.362;7.370;2023-08-20T05:33:32;19.00;99.90
12885;DHT22;6510;51.362;7.370;2023-08-20T05:35:59;19.00;99.90
12885;DHT22;6510;51.362;7.370;2023-08-20T05:38:25;18.90;99.90
12885;DHT22;6510;51.362;7.370;2023-08-20T05:40:50;18.90;99.90
12885;DHT22;6510;51.362;7.370;2023-08-20T05:43:16;18.80;99.90
12885;DHT22;6510;51.362;7.370;2023-08-20T05:45:42;18.80;99.90
12885;DHT22;6510;51.362;7.370;2023-08-20T05:48:07;18.90;99.90
12885;DHT22;6510;51.362;7.370;2023-08-20T05:50:33;19.00;99.90
12885;DHT22;6510;51.362;7.370;2023-08-20T05:52:58;19.30;99.90
12885;DHT22;6510;51.362;7.370;2023-08-20T05:55:24;19.50;99.90
12885;DHT22;6510;51.362;7.370;2023-08-20T05:57:50;19.60;99.90
12885;DHT22;6510;51.362;7.370;2023-08-20T06:00:15;19.70;99.90
12885;DHT22;6510;51.362;7.370;2023-08-20T06:02:43;20.00;99.90
12885;DHT22;6510;51.362;7.370;2023-08-20T06:05:09;20.40;99.90
12885;DHT22;6510;51.362;7.370;2023-08-20T06:07:35;20.60;99.90
12885;DHT22;6510;51.362;7.370;2023-08-20T06:10:01;20.70;99.90
12885;DHT22;6510;51.362;7.370;2023-08-20T06:12:26;20.60;99.90
12885;DHT22;6510;51.362;7.370;2023-08-20T06:14:52;20.50;99.90
12885;DHT22;6510;51.362;7.370;2023-08-20T06:17:18;20.60;99.90
12885;DHT22;6510;51.362;7.370;2023-08-20T06:19:44;20.90;99.90
12885;DHT22;6510;51.362;7.370;2023-08-20T06:22:10;21.70;99.90
12885;DHT22;6510;51.362;7.370;2023-08-20T06:24:36;22.20;99.90
12885;DHT22;6510;51.362;7.370;2023-08-20T06:27:01;22.10;99.90
12885;DHT22;6510;51.362;7.370;2023-08-20T06:29:27;22.00;99.90
12885;DHT22;6510;51.362;7.370;2023-08-20T06:31:52;22.00;99.90
12885;DHT22;6510;51.362;7.370;2023-08-20T06:34:18;22.30;99.90
12885;DHT22;6510;51.362;7.370;2023-08-20T06:36:43;23.10;99.90
12885;DHT22;6510;51.362;7.370;2023-08-20T06:39:09;23.80;99.90
12885;DHT22;6510;51.362;7.370;2023-08-20T06:41:35;24.30;99.90
12885;DHT22;6510;51.362;7.370;2023-08-20T06:44:01;24.70;99.90
12885;DHT22;6510;51.362;7.370;2023-08-20T06:46:27;25.40;99.90
12885;DHT22;6510;51.362;7.370;2023-08-20T06:48:53;25.80;99.90
12885;DHT22;6510;51.362;7.370;2023-08-20T06:51:22;26.10;99.90
12885;DHT22;6510;51.362;7.370;2023-08-20T06:53:48;26.70;99.90
12885;DHT22;6510;51.362;7.370;2023-08-20T06:56:14;27.20;99.90
12885;DHT22;6510;51.362;7.370;2023-08-20T06:58:41;27.60;99.90
12885;DHT22;6510;51.362;7.370;2023-08-20T07:01:07;28.00;99.90
12885;DHT22;6510;51.362;7.370;2023-08-20T07:03:34;28.50;99.90
12885;DHT22;6510;51.362;7.370;2023-08-20T07:06:01;28.00;99.90
12885;DHT22;6510;51.362;7.370;2023-08-20T07:08:27;28.30;99.90
12885;DHT22;6510;51.362;7.370;2023-08-20T07:10:52;28.40;99.90
12885;DHT22;6510;51.362;7.370;2023-08-20T07:13:18;29.30;99.90
12885;DHT22;6510;51.362;7.370;2023-08-20T07:15:43;29.20;99.90
12885;DHT22;6510;51.362;7.370;2023-08-20T07:18:09;29.70;99.90
12885;DHT22;6510;51.362;7.370;2023-08-20T07:20:38;29.80;99.90
12885;DHT22;6510;51.362;7.370;2023-08-20T07:23:04;30.10;99.90
12885;DHT22;6510;51.362;7.370;2023-08-20T07:25:30;30.50;99.90
12885;DHT22;6510;51.362;7.370;2023-08-20T07:27:56;30.40;99.90
12885;DHT22;6510;51.362;7.370;2023-08-20T07:30:25;29.90;99.90
12885;DHT22;6510;51.362;7.370;2023-08-20T07:32:51;30.10;99.90
12885;DHT22;6510;51.362;7.370;2023-08-20T07:35:16;30.50;99.90
12885;DHT22;6510;51.362;7.370;2023-08-20T07:37:42;31.20;99.90
12885;DHT22;6510;51.362;7.370;2023-08-20T07:40:08;31.60;99.90
12885;DHT22;6510;51.362;7.370;2023-08-20T07:42:34;31.00;99.90
12885;DHT22;6510;51.362;7.370;2023-08-20T07:45:00;31.70;99.90
12885;DHT22;6510;51.362;7.370;2023-08-20T07:47:26;31.90;99.90
12885;DHT22;6510;51.362;7.370;2023-08-20T07:49:54;31.80;99.90
12885;DHT22;6510;51.362;7.370;2023-08-20T07:52:20;31.90;99.90
12885;DHT22;6510;51.362;7.370;2023-08-20T07:54:45;31.80;99.90
12885;DHT22;6510;51.362;7.370;2023-08-20T07:57:11;32.30;99.90
12885;DHT22;6510;51.362;7.370;2023-08-20T07:59:38;31.80;99.90
12885;DHT22;6510;51.362;7.370;2023-08-20T08:02:03;31.40;99.90
12885;DHT22;6510;51.362;7.370;2023-08-20T08:04:29;31.60;99.90
12885;DHT22;6510;51.362;7.370;2023-08-20T08:06:55;31.50;99.90
12885;DHT22;6510;51.362;7.370;2023-08-20T08:09:25;31.50;99.90
12885;DHT22;6510;51.362;7.370;2023-08-20T08:11:51;32.10;99.90
12885;DHT22;6510;51.362;7.370;2023-08-20T08:14:17;32.60;99.90
12885;DHT22;6510;51.362;7.370;2023-08-20T08:16:45;33.20;99.90
12885;DHT22;6510;51.362;7.370;2023-08-20T08:19:11;33.80;99.90
12885;DHT22;6510;51.362;7.370;2023-08-20T08:21:37;34.20;99.90
12885;DHT22;6510;51.362;7.370;2023-08-20T08:24:03;34.20;99.90
12885;DHT22;6510;51.362;7.370;2023-08-20T08:26:29;34.90;99.90
12885;DHT22;6510;51.362;7.370;2023-08-20T08:28:55;35.30;99.90
12885;DHT22;6510;51.362;7.370;2023-08-20T08:31:21;36.20;98.50
12885;DHT22;6510;51.362;7.370;2023-08-20T08:33:46;37.00;97.10
12885;DHT22;6510;51.362;7.370;2023-08-20T08:36:12;37.40;91.80
12885;DHT22;6510;51.362;7.370;2023-08-20T08:38:38;38.10;91.80
12885;DHT22;6510;51.362;7.370;2023-08-20T08:41:12;38.70;90.20
12885;DHT22;6510;51.362;7.370;2023-08-20T08:43:39;38.90;87.80
12885;DHT22;6510;51.362;7.370;2023-08-20T08:46:12;38.80;88.90
12885;DHT22;6510;51.362;7.370;2023-08-20T08:48:40;38.70;88.00
12885;DHT22;6510;51.362;7.370;2023-08-20T08:51:06;38.50;87.50
12885;DHT22;6510;51.362;7.370;2023-08-20T08:53:32;39.00;83.60
12885;DHT22;6510;51.362;7.370;2023-08-20T08:55:59;38.80;82.20
12885;DHT22;6510;51.362;7.370;2023-08-20T08:58:25;38.70;83.10
12885;DHT22;6510;51.362;7.370;2023-08-20T09:00:54;38.60;80.80
12885;DHT22;6510;51.362;7.370;2023-08-20T09:03:20;38.20;83.80
12885;DHT22;6510;51.362;7.370;2023-08-20T09:05:49;38.20;79.80
12885;DHT22;6510;51.362;7.370;2023-08-20T09:08:33;38.60;78.70
12885;DHT22;6510;51.362;7.370;2023-08-20T09:11:01;36.30;86.10
12885;DHT22;6510;51.362;7.370;2023-08-20T09:13:41;37.40;85.00
12885;DHT22;6510;51.362;7.370;2023-08-20T09:16:11;37.30;81.30
12885;DHT22;6510;51.362;7.370;2023-08-20T09:18:41;35.40;84.50
12885;DHT22;6510;51.362;7.370;2023-08-20T09:21:12;33.50;91.00
12885;DHT22;6510;51.362;7.370;2023-08-20T09:23:38;33.90;92.80
12885;DHT22;6510;51.362;7.370;2023-08-20T09:26:05;35.60;89.30
12885;DHT22;6510;51.362;7.370;2023-08-20T09:28:42;36.30;87.90
12885;DHT22;6510;51.362;7.370;2023-08-20T09:31:08;35.50;89.20
12885;DHT22;6510;51.362;7.370;2023-08-20T09:33:33;33.70;92.20
12885;DHT22;6510;51.362;7.370;2023-08-20T09:35:59;32.30;94.70
12885;DHT22;6510;51.362;7.370;2023-08-20T09:38:25;32.10;94.90
12885;DHT22;6510;51.362;7.370;2023-08-20T09:40:52;34.50;93.30
12885;DHT22;6510;51.362;7.370;2023-08-20T09:43:19;36.80;87.70
12885;DHT22;6510;51.362;7.370;2023-08-20T09:45:47;36.20;85.90
12885;DHT22;6510;51.362;7.370;2023-08-20T09:48:18;36.50;88.10
12885;DHT22;6510;51.362;7.370;2023-08-20T09:50:47;36.20;88.10
12885;DHT22;6510;51.362;7.370;2023-08-20T09:53:25;35.80;88.40
12885;DHT22;6510;51.362;7.370;2023-08-20T09:55:52;34.80;90.20
12885;DHT22;6510;51.362;7.370;2023-08-20T09:58:19;34.20;91.20
12885;DHT22;6510;51.362;7.370;2023-08-20T10:00:49;32.10;94.30
12885;DHT22;6510;51.362;7.370;2023-08-20T10:03:16;31.40;97.40
12885;DHT22;6510;51.362;7.370;2023-08-20T10:05:42;34.00;95.60
12885;DHT22;6510;51.362;7.370;2023-08-20T10:08:08;35.80;86.30
12885;DHT22;6510;51.362;7.370;2023-08-20T10:10:34;34.90;88.20
12885;DHT22;6510;51.362;7.370;2023-08-20T10:13:00;34.90;90.80
12885;DHT22;6510;51.362;7.370;2023-08-20T10:15:26;37.20;88.30
12885;DHT22;6510;51.362;7.370;2023-08-20T10:17:53;39.60;81.90
12885;DHT22;6510;51.362;7.370;2023-08-20T10:20:23;40.80;75.20
12885;DHT22;6510;51.362;7.370;2023-08-20T10:22:50;41.00;77.40
12885;DHT22;6510;51.362;7.370;2023-08-20T10:25:24;41.40;71.70
12885;DHT22;6510;51.362;7.370;2023-08-20T10:27:51;41.80;72.20
12885;DHT22;6510;51.362;7.370;2023-08-20T10:30:24;39.90;72.50
12885;DHT22;6510;51.362;7.370;2023-08-20T10:32:52;37.50;76.30
12885;DHT22;6510;51.362;7.370;2023-08-20T10:35:25;36.20;81.50
12885;DHT22;6510;51.362;7.370;2023-08-20T10:38:04;34.90;85.70
12885;DHT22;6510;51.362;7.370;2023-08-20T10:40:56;34.10;90.10
12885;DHT22;6510;51.362;7.370;2023-08-20T10:43:38;36.30;85.30
12885;DHT22;6510;51.362;7.370;2023-08-20T10:48:32;36.80;79.50
12885;DHT22;6510;51.362;7.370;2023-08-20T10:51:13;38.10;78.10
12885;DHT22;6510;51.362;7.370;2023-08-20T10:53:40;39.40;73.60
12885;DHT22;6510;51.362;7.370;2023-08-20T10:56:11;41.50;69.00
12885;DHT22;6510;51.362;7.370;2023-08-20T10:58:40;41.50;63.70
12885;DHT22;6510;51.362;7.370;2023-08-20T11:01:18;42.90;64.70
12885;DHT22;6510;51.362;7.370;2023-08-20T11:03:50;44.40;59.60
12885;DHT22;6510;51.362;7.370;2023-08-20T11:06:17;44.00;61.20
12885;DHT22;6510;51.362;7.370;2023-08-20T11:08:44;42.60;59.70
12885;DHT22;6510;51.362;7.370;2023-08-20T11:11:10;38.80;67.30
12885;DHT22;6510;51.362;7.370;2023-08-20T11:13:38;38.90;69.50
12885;DHT22;6510;51.362;7.370;2023-08-20T11:16:05;40.50;67.00
12885;DHT22;6510;51.362;7.370;2023-08-20T11:18:32;39.00;66.80
12885;DHT22;6510;51.362;7.370;2023-08-20T11:20:59;36.20;73.50
12885;DHT22;6510;51.362;7.370;2023-08-20T11:23:25;34.10;84.00
12885;DHT22;6510;51.362;7.370;2023-08-20T11:25:51;34.80;86.10
12885;DHT22;6510;51.362;7.370;2023-08-20T11:28:16;37.90;74.40
12885;DHT22;6510;51.362;7.370;2023-08-20T11:30:42;39.70;69.40
12885;DHT22;6510;51.362;7.370;2023-08-20T11:33:08;40.10;66.70
12885;DHT22;6510;51.362;7.370;2023-08-20T11:35:35;40.20;68.80
12885;DHT22;6510;51.362;7.370;2023-08-20T11:38:03;39.60;68.80
12885;DHT22;6510;51.362;7.370;2023-08-20T11:40:29;37.00;70.60
12885;DHT22;6510;51.362;7.370;2023-08-20T11:42:54;34.20;79.10
12885;DHT22;6510;51.362;7.370;2023-08-20T11:45:20;31.90;91.20
12885;DHT22;6510;51.362;7.370;2023-08-20T11:47:46;31.00;94.90
12885;DHT22;6510;51.362;7.370;2023-08-20T11:50:11;30.80;96.20
12885;DHT22;6510;51.362;7.370;2023-08-20T11:52:37;31.40;95.50
12885;DHT22;6510;51.362;7.370;2023-08-20T11:55:05;31.30;95.40
12885;DHT22;6510;51.362;7.370;2023-08-20T11:57:31;31.30;95.10
12885;DHT22;6510;51.362;7.370;2023-08-20T12:00:03;32.30;96.00
12885;DHT22;6510;51.362;7.370;2023-08-20T12:02:29;33.90;91.20
12885;DHT22;6510;51.362;7.370;2023-08-20T12:04:56;34.50;88.30
12885;DHT22;6510;51.362;7.370;2023-08-20T12:07:28;35.10;89.90
12885;DHT22;6510;51.362;7.370;2023-08-20T12:09:55;35.60;87.00
12885;DHT22;6510;51.362;7.370;2023-08-20T12:12:21;36.20;84.30
12885;DHT22;6510;51.362;7.370;2023-08-20T12:14:47;36.90;85.30
12885;DHT22;6510;51.362;7.370;2023-08-20T12:17:12;38.70;80.70
12885;DHT22;6510;51.362;7.370;2023-08-20T12:19:47;39.90;75.10
12885;DHT22;6510;51.362;7.370;2023-08-20T12:22:13;38.70;74.50
12885;DHT22;6510;51.362;7.370;2023-08-20T12:24:39;36.00;81.00
12885;DHT22;6510;51.362;7.370;2023-08-20T12:27:04;33.70;86.60
12885;DHT22;6510;51.362;7.370;2023-08-20T12:29:30;32.20;92.80
12885;DHT22;6510;51.362;7.370;2023-08-20T12:31:56;31.70;94.30
12885;DHT22;6510;51.362;7.370;2023-08-20T12:34:21;32.30;94.60
12885;DHT22;6510;51.362;7.370;2023-08-20T12:36:48;35.70;89.50
12885;DHT22;6510;51.362;7.370;2023-08-20T12:39:14;38.40;76.10
12885;DHT22;6510;51.362;7.370;2023-08-20T12:41:39;40.00;73.50
12885;DHT22;6510;51.362;7.370;2023-08-20T12:44:06;39.90;69.60
12885;DHT22;6510;51.362;7.370;2023-08-20T12:46:31;37.90;74.20
12885;DHT22;6510;51.362;7.370;2023-08-20T12:48:57;35.70;79.50
12885;DHT22;6510;51.362;7.370;2023-08-20T12:51:22;33.50;88.70
12885;DHT22;6510;51.362;7.370;2023-08-20T12:53:48;32.60;93.50
12885;DHT22;6510;51.362;7.370;2023-08-20T12:56:14;32.10;95.00
12885;DHT22;6510;51.362;7.370;2023-08-20T12:58:41;32.10;94.70
12885;DHT22;6510;51.362;7.370;2023-08-20T13:01:06;31.80;96.20
12885;DHT22;6510;51.362;7.370;2023-08-20T13:03:32;31.80;96.50
12885;DHT22;6510;51.362;7.370;2023-08-20T13:05:58;32.40;96.20
12885;DHT22;6510;51.362;7.370;2023-08-20T13:08:25;33.90;93.50
12885;DHT22;6510;51.362;7.370;2023-08-20T13:10:56;33.60;92.20
12885;DHT22;6510;51.362;7.370;2023-08-20T13:13:23;34.10;92.30
12885;DHT22;6510;51.362;7.370;2023-08-20T13:15:51;34.30;91.90
12885;DHT22;6510;51.362;7.370;2023-08-20T13:18:17;34.80;91.40
12885;DHT22;6510;51.362;7.370;2023-08-20T13:20:43;33.90;92.10
12885;DHT22;6510;51.362;7.370;2023-08-20T13:23:09;33.90;92.50
12885;DHT22;6510;51.362;7.370;2023-08-20T13:25:35;33.00;92.60
12885;DHT22;6510;51.362;7.370;2023-08-20T13:28:00;33.10;92.80
12885;DHT22;6510;51.362;7.370;2023-08-20T13:30:26;32.00;94.70
12885;DHT22;6510;51.362;7.370;2023-08-20T13:32:52;31.20;95.60
12885;DHT22;6510;51.362;7.370;2023-08-20T13:35:18;31.70;96.60
12885;DHT22;6510;51.362;7.370;2023-08-20T13:37:44;34.70;92.90
12885;DHT22;6510;51.362;7.370;2023-08-20T13:40:11;36.90;87.20
12885;DHT22;6510;51.362;7.370;2023-08-20T13:42:37;38.10;80.80
12885;DHT22;6510;51.362;7.370;2023-08-20T13:45:03;39.50;76.70
12885;DHT22;6510;51.362;7.370;2023-08-20T13:47:29;39.50;73.30
12885;DHT22;6510;51.362;7.370;2023-08-20T13:49:58;39.30;72.00
12885;DHT22;6510;51.362;7.370;2023-08-20T13:52:24;39.60;74.90
12885;DHT22;6510;51.362;7.370;2023-08-20T13:54:58;39.70;72.20
12885;DHT22;6510;51.362;7.370;2023-08-20T13:57:24;40.10;71.10
12885;DHT22;6510;51.362;7.370;2023-08-20T13:59:50;39.80;70.70
12885;DHT22;6510;51.362;7.370;2023-08-20T14:02:15;40.00;72.00
12885;DHT22;6510;51.362;7.370;2023-08-20T14:04:41;40.30;68.70
12885;DHT22;6510;51.362;7.370;2023-08-20T14:07:07;39.90;70.30
12885;DHT22;6510;51.362;7.370;2023-08-20T14:09:33;39.00;70.20
12885;DHT22;6510;51.362;7.370;2023-08-20T14:12:00;38.90;71.60
12885;DHT22;6510;51.362;7.370;2023-08-20T14:14:44;39.50;71.40
12885;DHT22;6510;51.362;7.370;2023-08-20T14:17:10;39.00;72.00
12885;DHT22;6510;51.362;7.370;2023-08-20T14:19:35;38.60;72.20
12885;DHT22;6510;51.362;7.370;2023-08-20T14:22:01;37.70;72.40
12885;DHT22;6510;51.362;7.370;2023-08-20T14:24:26;35.80;75.40
12885;DHT22;6510;51.362;7.370;2023-08-20T14:26:52;35.10;79.10
12885;DHT22;6510;51.362;7.370;2023-08-20T14:29:18;35.30;81.60
12885;DHT22;6510;51.362;7.370;2023-08-20T14:31:43;35.70;82.20
12885;DHT22;6510;51.362;7.370;2023-08-20T14:34:09;36.60;77.20
12885;DHT22;6510;51.362;7.370;2023-08-20T14:36:34;36.50;75.80
12885;DHT22;6510;51.362;7.370;2023-08-20T14:39:00;36.80;76.00
12885;DHT22;6510;51.362;7.370;2023-08-20T14:41:26;36.50;78.40
12885;DHT22;6510;51.362;7.370;2023-08-20T14:43:51;35.30;79.80
12885;DHT22;6510;51.362;7.370;2023-08-20T14:46:17;34.00;85.20
12885;DHT22;6510;51.362;7.370;2023-08-20T14:48:42;33.40;89.80
12885;DHT22;6510;51.362;7.370;2023-08-20T14:51:08;32.90;89.50
12885;DHT22;6510;51.362;7.370;2023-08-20T14:53:34;32.90;91.30
12885;DHT22;6510;51.362;7.370;2023-08-20T14:56:00;32.80;90.90
12885;DHT22;6510;51.362;7.370;2023-08-20T14:58:25;32.20;91.60
12885;DHT22;6510;51.362;7.370;2023-08-20T15:00:51;32.20;92.30
12885;DHT22;6510;51.362;7.370;2023-08-20T15:03:17;31.40;93.60
12885;DHT22;6510;51.362;7.370;2023-08-20T15:05:42;31.20;93.70
12885;DHT22;6510;51.362;7.370;2023-08-20T15:08:08;31.00;93.90
12885;DHT22;6510;51.362;7.370;2023-08-20T15:10:33;30.80;95.10
12885;DHT22;6510;51.362;7.370;2023-08-20T15:12:59;30.70;94.10
12885;DHT22;6510;51.362;7.370;2023-08-20T15:15:25;30.70;94.90
12885;DHT22;6510;51.362;7.370;2023-08-20T15:17:56;30.50;94.90
12885;DHT22;6510;51.362;7.370;2023-08-20T15:20:22;30.20;95.30
12885;DHT22;6510;51.362;7.370;2023-08-20T15:22:47;29.90;95.60
12885;DHT22;6510;51.362;7.370;2023-08-20T15:25:13;29.80;96.00
12885;DHT22;6510;51.362;7.370;2023-08-20T15:27:40;29.50;96.40
12885;DHT22;6510;51.362;7.370;2023-08-20T15:30:07;29.30;96.70
12885;DHT22;6510;51.362;7.370;2023-08-20T15:32:33;29.20;97.70
12885;DHT22;6510;51.362;7.370;2023-08-20T15:34:59;29.30;98.00
12885;DHT22;6510;51.362;7.370;2023-08-20T15:37:27;29.30;96.80
12885;DHT22;6510;51.362;7.370;2023-08-20T15:39:52;29.20;97.50
12885;DHT22;6510;51.362;7.370;2023-08-20T15:42:18;29.00;97.80
12885;DHT22;6510;51.362;7.370;2023-08-20T15:44:44;29.20;98.00
12885;DHT22;6510;51.362;7.370;2023-08-20T15:47:10;29.10;98.40
12885;DHT22;6510;51.362;7.370;2023-08-20T15:49:35;29.10;98.70
12885;DHT22;6510;51.362;7.370;2023-08-20T15:52:01;29.10;98.90
12885;DHT22;6510;51.362;7.370;2023-08-20T15:54:26;29.00;99.50
12885;DHT22;6510;51.362;7.370;2023-08-20T15:56:52;28.80;99.90